sensor_id;sensor_type;location;lat;lon;timestamp;P1;durP1;ratioP1;P2;durP2;ratioP2
38994;SDS011;24769;18.712;99.000;2023-01-28T00:00:33;112.80;;;110.00;;
38994;SDS011;24769;18.712;99.000;2023-01-28T00:03:00;109.20;;;107.60;;
38994;SDS011;24769;18.712;99.000;2023-01-28T00:05:27;119.50;;;118.50;;
38994;SDS011;24769;18.712;99.000;2023-01-28T00:07:54;117.75;;;116.50;;
38994;SDS011;24769;18.712;99.000;2023-01-28T00:10:22;115.75;;;112.50;;
38994;SDS011;24769;18.712;99.000;2023-01-28T00:12:48;117.50;;;116.50;;
38994;SDS011;24769;18.712;99.000;2023-01-28T00:15:15;171.50;;;157.75;;
38994;SDS011;24769;18.712;99.000;2023-01-28T00:17:42;244.75;;;216.25;;
38994;SDS011;24769;18.712;99.000;2023-01-28T00:20:10;223.00;;;200.50;;
38994;SDS011;24769;18.712;99.000;2023-01-28T00:22:37;219.25;;;195.00;;
38994;SDS011;24769;18.712;99.000;2023-01-28T00:25:04;219.50;;;206.25;;
38994;SDS011;24769;18.712;99.000;2023-01-28T00:27:31;213.50;;;196.25;;
38994;SDS011;24769;18.712;99.000;2023-01-28T00:29:58;204.25;;;187.75;;
38994;SDS011;24769;18.712;99.000;2023-01-28T00:32:25;171.33;;;163.00;;
38994;SDS011;24769;18.712;99.000;2023-01-28T00:34:51;174.33;;;168.00;;
38994;SDS011;24769;18.712;99.000;2023-01-28T00:37:18;162.00;;;154.33;;
38994;SDS011;24769;18.712;99.000;2023-01-28T00:39:45;151.75;;;148.50;;
38994;SDS011;24769;18.712;99.000;2023-01-28T00:42:11;157.25;;;151.25;;
38994;SDS011;24769;18.712;99.000;2023-01-28T00:44:38;141.50;;;139.75;;
38994;SDS011;24769;18.712;99.000;2023-01-28T00:47:05;145.00;;;138.25;;
38994;SDS011;24769;18.712;99.000;2023-01-28T00:49:31;131.50;;;127.75;;
38994;SDS011;24769;18.712;99.000;2023-01-28T00:51:58;144.00;;;141.25;;
38994;SDS011;24769;18.712;99.000;2023-01-28T00:54:25;122.75;;;121.25;;
38994;SDS011;24769;18.712;99.000;2023-01-28T00:56:51;134.50;;;133.25;;
38994;SDS011;24769;18.712;99.000;2023-01-28T00:59:18;130.75;;;130.00;;
38994;SDS011;24769;18.712;99.000;2023-01-28T01:01:45;142.00;;;139.25;;
38994;SDS011;24769;18.712;99.000;2023-01-28T01:04:11;139.00;;;137.50;;
38994;SDS011;24769;18.712;99.000;2023-01-28T01:06:38;139.50;;;135.25;;
38994;SDS011;24769;18.712;99.000;2023-01-28T01:09:06;131.50;;;130.75;;
38994;SDS011;24769;18.712;99.000;2023-01-28T01:11:36;112.75;;;111.50;;
38994;SDS011;24769;18.712;99.000;2023-01-28T01:14:03;127.20;;;121.80;;
38994;SDS011;24769;18.712;99.000;2023-01-28T01:16:31;116.00;;;113.60;;
38994;SDS011;24769;18.712;99.000;2023-01-28T01:19:00;116.80;;;114.20;;
38994;SDS011;24769;18.712;99.000;2023-01-28T01:21:28;116.40;;;115.40;;
38994;SDS011;24769;18.712;99.000;2023-01-28T01:23:55;120.20;;;118.40;;
38994;SDS011;24769;18.712;99.000;2023-01-28T01:26:22;120.20;;;119.00;;
38994;SDS011;24769;18.712;99.000;2023-01-28T01:28:51;128.60;;;127.20;;
38994;SDS011;24769;18.712;99.000;2023-01-28T01:31:19;124.00;;;120.00;;
38994;SDS011;24769;18.712;99.000;2023-01-28T01:33:47;129.40;;;128.20;;
38994;SDS011;24769;18.712;99.000;2023-01-28T01:36:15;135.20;;;131.40;;
38994;SDS011;24769;18.712;99.000;2023-01-28T01:38:46;118.80;;;117.20;;
38994;SDS011;24769;18.712;99.000;2023-01-28T01:41:21;123.00;;;117.40;;
38994;SDS011;24769;18.712;99.000;2023-01-28T01:43:53;125.20;;;124.00;;
38994;SDS011;24769;18.712;99.000;2023-01-28T01:49:04;107.00;;;106.00;;
38994;SDS011;24769;18.712;99.000;2023-01-28T01:51:46;114.80;;;112.00;;
38994;SDS011;24769;18.712;99.000;2023-01-28T01:54:16;111.60;;;109.20;;
38994;SDS011;24769;18.712;99.000;2023-01-28T01:56:46;111.60;;;107.40;;
38994;SDS011;24769;18.712;99.000;2023-01-28T01:59:16;104.80;;;103.60;;
38994;SDS011;24769;18.712;99.000;2023-01-28T02:01:50;112.80;;;110.20;;
38994;SDS011;24769;18.712;99.000;2023-01-28T02:04:20;115.40;;;111.20;;
38994;SDS011;24769;18.712;99.000;2023-01-28T02:06:50;116.60;;;111.20;;
38994;SDS011;24769;18.712;99.000;2023-01-28T02:09:35;116.20;;;113.00;;
38994;SDS011;24769;18.712;99.000;2023-01-28T02:12:20;114.00;;;110.20;;
38994;SDS011;24769;18.712;99.000;2023-01-28T02:14:55;113.00;;;110.00;;
38994;SDS011;24769;18.712;99.000;2023-01-28T02:17:29;106.60;;;105.60;;
38994;SDS011;24769;18.712;99.000;2023-01-28T02:20:00;111.60;;;110.20;;
38994;SDS011;24769;18.712;99.000;2023-01-28T02:25:29;135.20;;;131.60;;
38994;SDS011;24769;18.712;99.000;2023-01-28T02:31:10;112.40;;;111.20;;
38994;SDS011;24769;18.712;99.000;2023-01-28T02:39:01;104.00;;;99.40;;
38994;SDS011;24769;18.712;99.000;2023-01-28T02:41:37;97.00;;;96.40;;
38994;SDS011;24769;18.712;99.000;2023-01-28T02:44:20;94.60;;;92.80;;
38994;SDS011;24769;18.712;99.000;2023-01-28T02:46:47;100.20;;;100.20;;
38994;SDS011;24769;18.712;99.000;2023-01-28T02:49:39;94.00;;;93.60;;
38994;SDS011;24769;18.712;99.000;2023-01-28T02:52:13;94.80;;;93.60;;
38994;SDS011;24769;18.712;99.000;2023-01-28T02:55:20;96.60;;;95.80;;
38994;SDS011;24769;18.712;99.000;2023-01-28T03:01:18;88.80;;;87.80;;
38994;SDS011;24769;18.712;99.000;2023-01-28T03:04:18;91.80;;;91.20;;
38994;SDS011;24769;18.712;99.000;2023-01-28T03:06:53;90.40;;;88.60;;
38994;SDS011;24769;18.712;99.000;2023-01-28T03:09:24;96.20;;;94.80;;
38994;SDS011;24769;18.712;99.000;2023-01-28T03:14:59;78.60;;;72.20;;
38994;SDS011;24769;18.712;99.000;2023-01-28T03:18:09;81.60;;;80.60;;
38994;SDS011;24769;18.712;99.000;2023-01-28T03:30:18;80.40;;;77.40;;
38994;SDS011;24769;18.712;99.000;2023-01-28T03:33:13;84.00;;;83.40;;
38994;SDS011;24769;18.712;99.000;2023-01-28T03:36:00;78.60;;;74.00;;
38994;SDS011;24769;18.712;99.000;2023-01-28T03:38:45;80.60;;;78.80;;
38994;SDS011;24769;18.712;99.000;2023-01-28T03:41:18;84.60;;;84.20;;
38994;SDS011;24769;18.712;99.000;2023-01-28T03:43:47;82.20;;;79.40;;
38994;SDS011;24769;18.712;99.000;2023-01-28T03:46:14;78.20;;;75.40;;
38994;SDS011;24769;18.712;99.000;2023-01-28T03:48:42;75.25;;;68.00;;
38994;SDS011;24769;18.712;99.000;2023-01-28T03:51:10;77.00;;;72.25;;
38994;SDS011;24769;18.712;99.000;2023-01-28T03:53:37;68.75;;;58.75;;
38994;SDS011;24769;18.712;99.000;2023-01-28T03:56:04;76.50;;;69.75;;
38994;SDS011;24769;18.712;99.000;2023-01-28T03:58:31;74.00;;;67.50;;
38994;SDS011;24769;18.712;99.000;2023-01-28T04:01:17;74.75;;;68.50;;
38994;SDS011;24769;18.712;99.000;2023-01-28T04:03:44;73.00;;;65.00;;
38994;SDS011;24769;18.712;99.000;2023-01-28T04:06:11;73.25;;;66.00;;
38994;SDS011;24769;18.712;99.000;2023-01-28T04:08:37;72.25;;;63.75;;
38994;SDS011;24769;18.712;99.000;2023-01-28T04:11:24;69.50;;;59.25;;
38994;SDS011;24769;18.712;99.000;2023-01-28T04:13:51;70.75;;;59.75;;
38994;SDS011;24769;18.712;99.000;2023-01-28T04:16:18;69.75;;;59.50;;
38994;SDS011;24769;18.712;99.000;2023-01-28T04:18:45;65.25;;;52.75;;
38994;SDS011;24769;18.712;99.000;2023-01-28T04:21:12;68.25;;;56.00;;
38994;SDS011;24769;18.712;99.000;2023-01-28T04:23:39;64.50;;;52.50;;
38994;SDS011;24769;18.712;99.000;2023-01-28T04:26:06;66.25;;;54.25;;
38994;SDS011;24769;18.712;99.000;2023-01-28T04:28:32;68.75;;;58.25;;
38994;SDS011;24769;18.712;99.000;2023-01-28T04:30:59;62.50;;;51.25;;
38994;SDS011;24769;18.712;99.000;2023-01-28T04:33:26;59.50;;;49.25;;
38994;SDS011;24769;18.712;99.000;2023-01-28T04:35:53;60.75;;;50.50;;
38994;SDS011;24769;18.712;99.000;2023-01-28T04:38:19;59.75;;;49.25;;
38994;SDS011;24769;18.712;99.000;2023-01-28T04:40:50;60.75;;;50.25;;
38994;SDS011;24769;18.712;99.000;2023-01-28T04:43:17;60.25;;;50.25;;
38994;SDS011;24769;18.712;99.000;2023-01-28T04:45:45;63.50;;;51.25;;
38994;SDS011;24769;18.712;99.000;2023-01-28T04:48:13;59.25;;;49.25;;
38994;SDS011;24769;18.712;99.000;2023-01-28T04:50:41;63.50;;;51.75;;
38994;SDS011;24769;18.712;99.000;2023-01-28T04:53:09;59.50;;;49.00;;
38994;SDS011;24769;18.712;99.000;2023-01-28T04:55:36;55.00;;;46.25;;
38994;SDS011;24769;18.712;99.000;2023-01-28T04:58:03;54.75;;;46.00;;
38994;SDS011;24769;18.712;99.000;2023-01-28T05:00:29;49.25;;;42.25;;
38994;SDS011;24769;18.712;99.000;2023-01-28T05:02:56;55.50;;;46.50;;
38994;SDS011;24769;18.712;99.000;2023-01-28T05:05:23;53.25;;;45.25;;
38994;SDS011;24769;18.712;99.000;2023-01-28T05:07:50;49.20;;;42.20;;
38994;SDS011;24769;18.712;99.000;2023-01-28T05:10:18;56.20;;;46.40;;
38994;SDS011;24769;18.712;99.000;2023-01-28T05:12:46;55.20;;;45.20;;
38994;SDS011;24769;18.712;99.000;2023-01-28T05:15:16;49.00;;;41.80;;
38994;SDS011;24769;18.712;99.000;2023-01-28T05:17:44;55.80;;;46.40;;
38994;SDS011;24769;18.712;99.000;2023-01-28T05:20:11;54.00;;;45.75;;
38994;SDS011;24769;18.712;99.000;2023-01-28T05:22:39;53.25;;;44.75;;
38994;SDS011;24769;18.712;99.000;2023-01-28T05:25:07;55.80;;;46.80;;
38994;SDS011;24769;18.712;99.000;2023-01-28T05:27:34;55.40;;;46.40;;
38994;SDS011;24769;18.712;99.000;2023-01-28T05:30:01;53.20;;;45.20;;
38994;SDS011;24769;18.712;99.000;2023-01-28T05:32:29;58.00;;;48.60;;
38994;SDS011;24769;18.712;99.000;2023-01-28T05:34:55;53.60;;;45.60;;
38994;SDS011;24769;18.712;99.000;2023-01-28T05:37:22;58.75;;;48.75;;
38994;SDS011;24769;18.712;99.000;2023-01-28T05:39:49;61.75;;;51.00;;
38994;SDS011;24769;18.712;99.000;2023-01-28T05:42:15;61.50;;;50.75;;
38994;SDS011;24769;18.712;99.000;2023-01-28T05:44:45;59.50;;;49.25;;
38994;SDS011;24769;18.712;99.000;2023-01-28T05:47:11;62.75;;;52.00;;
38994;SDS011;24769;18.712;99.000;2023-01-28T05:49:38;57.75;;;48.50;;
38994;SDS011;24769;18.712;99.000;2023-01-28T05:52:05;60.00;;;50.00;;
38994;SDS011;24769;18.712;99.000;2023-01-28T05:54:31;60.25;;;48.75;;
38994;SDS011;24769;18.712;99.000;2023-01-28T05:56:58;55.60;;;46.60;;
38994;SDS011;24769;18.712;99.000;2023-01-28T05:59:25;60.75;;;50.25;;
38994;SDS011;24769;18.712;99.000;2023-01-28T06:01:51;58.60;;;48.20;;
38994;SDS011;24769;18.712;99.000;2023-01-28T06:04:18;56.80;;;47.60;;
38994;SDS011;24769;18.712;99.000;2023-01-28T06:06:45;59.80;;;49.80;;
38994;SDS011;24769;18.712;99.000;2023-01-28T06:09:11;59.40;;;49.20;;
38994;SDS011;24769;18.712;99.000;2023-01-28T06:11:38;56.20;;;47.20;;
38994;SDS011;24769;18.712;99.000;2023-01-28T06:14:05;56.00;;;47.00;;
38994;SDS011;24769;18.712;99.000;2023-01-28T06:16:31;59.00;;;49.25;;
38994;SDS011;24769;18.712;99.000;2023-01-28T06:18:59;55.40;;;46.20;;
38994;SDS011;24769;18.712;99.000;2023-01-28T06:21:26;57.60;;;47.40;;
38994;SDS011;24769;18.712;99.000;2023-01-28T06:23:52;57.80;;;48.60;;
38994;SDS011;24769;18.712;99.000;2023-01-28T06:26:19;53.80;;;45.60;;
38994;SDS011;24769;18.712;99.000;2023-01-28T06:28:46;59.40;;;48.60;;
38994;SDS011;24769;18.712;99.000;2023-01-28T06:31:12;58.75;;;48.25;;
38994;SDS011;24769;18.712;99.000;2023-01-28T06:33:39;61.60;;;50.60;;
38994;SDS011;24769;18.712;99.000;2023-01-28T06:36:06;57.60;;;48.00;;
38994;SDS011;24769;18.712;99.000;2023-01-28T06:38:33;60.60;;;50.20;;
38994;SDS011;24769;18.712;99.000;2023-01-28T06:40:59;57.20;;;48.00;;
38994;SDS011;24769;18.712;99.000;2023-01-28T06:43:26;52.80;;;44.80;;
38994;SDS011;24769;18.712;99.000;2023-01-28T06:45:55;54.60;;;46.00;;
38994;SDS011;24769;18.712;99.000;2023-01-28T06:48:22;25.80;;;25.80;;
38994;SDS011;24769;18.712;99.000;2023-01-28T06:50:50;60.20;;;49.80;;
38994;SDS011;24769;18.712;99.000;2023-01-28T06:53:17;58.40;;;49.20;;
38994;SDS011;24769;18.712;99.000;2023-01-28T06:55:44;59.00;;;49.20;;
38994;SDS011;24769;18.712;99.000;2023-01-28T06:58:11;58.80;;;48.60;;
38994;SDS011;24769;18.712;99.000;2023-01-28T07:00:37;58.20;;;47.20;;
38994;SDS011;24769;18.712;99.000;2023-01-28T07:03:04;55.80;;;46.80;;
38994;SDS011;24769;18.712;99.000;2023-01-28T07:05:31;56.40;;;46.00;;
38994;SDS011;24769;18.712;99.000;2023-01-28T07:07:58;57.20;;;48.20;;
38994;SDS011;24769;18.712;99.000;2023-01-28T07:10:26;49.40;;;42.00;;
38994;SDS011;24769;18.712;99.000;2023-01-28T07:12:53;48.00;;;41.60;;
38994;SDS011;24769;18.712;99.000;2023-01-28T07:15:20;53.40;;;45.40;;
38994;SDS011;24769;18.712;99.000;2023-01-28T07:17:46;54.60;;;44.00;;
38994;SDS011;24769;18.712;99.000;2023-01-28T07:20:13;55.60;;;46.60;;
38994;SDS011;24769;18.712;99.000;2023-01-28T07:22:41;52.00;;;44.00;;
38994;SDS011;24769;18.712;99.000;2023-01-28T07:25:10;47.00;;;41.00;;
38994;SDS011;24769;18.712;99.000;2023-01-28T07:27:37;51.60;;;44.00;;
38994;SDS011;24769;18.712;99.000;2023-01-28T07:30:05;49.00;;;42.00;;
38994;SDS011;24769;18.712;99.000;2023-01-28T07:32:32;52.60;;;44.20;;
38994;SDS011;24769;18.712;99.000;2023-01-28T07:34:58;50.40;;;43.00;;
38994;SDS011;24769;18.712;99.000;2023-01-28T07:37:25;49.60;;;42.60;;
38994;SDS011;24769;18.712;99.000;2023-01-28T07:39:51;49.60;;;42.40;;
38994;SDS011;24769;18.712;99.000;2023-01-28T07:42:18;50.40;;;43.00;;
38994;SDS011;24769;18.712;99.000;2023-01-28T07:44:45;54.00;;;45.40;;
38994;SDS011;24769;18.712;99.000;2023-01-28T07:47:12;53.60;;;45.40;;
38994;SDS011;24769;18.712;99.000;2023-01-28T07:49:38;50.80;;;43.40;;
38994;SDS011;24769;18.712;99.000;2023-01-28T07:52:05;52.00;;;43.80;;
38994;SDS011;24769;18.712;99.000;2023-01-28T07:54:32;52.60;;;44.60;;
38994;SDS011;24769;18.712;99.000;2023-01-28T07:56:59;50.40;;;42.60;;
38994;SDS011;24769;18.712;99.000;2023-01-28T07:59:26;46.20;;;39.80;;
38994;SDS011;24769;18.712;99.000;2023-01-28T08:01:52;52.40;;;44.20;;
38994;SDS011;24769;18.712;99.000;2023-01-28T08:04:19;50.40;;;43.00;;
38994;SDS011;24769;18.712;99.000;2023-01-28T08:06:45;50.60;;;43.20;;
38994;SDS011;24769;18.712;99.000;2023-01-28T08:09:12;50.00;;;42.00;;
38994;SDS011;24769;18.712;99.000;2023-01-28T08:11:38;52.60;;;44.20;;
38994;SDS011;24769;18.712;99.000;2023-01-28T08:14:05;50.20;;;43.00;;
38994;SDS011;24769;18.712;99.000;2023-01-28T08:16:32;49.20;;;42.00;;
38994;SDS011;24769;18.712;99.000;2023-01-28T08:18:58;48.60;;;41.40;;
38994;SDS011;24769;18.712;99.000;2023-01-28T08:21:25;48.20;;;41.20;;
38994;SDS011;24769;18.712;99.000;2023-01-28T08:23:51;47.40;;;40.20;;
38994;SDS011;24769;18.712;99.000;2023-01-28T08:26:19;44.80;;;38.80;;
38994;SDS011;24769;18.712;99.000;2023-01-28T08:28:45;46.60;;;39.20;;
38994;SDS011;24769;18.712;99.000;2023-01-28T08:31:12;47.80;;;41.00;;
38994;SDS011;24769;18.712;99.000;2023-01-28T08:33:38;46.20;;;39.80;;
38994;SDS011;24769;18.712;99.000;2023-01-28T08:36:05;46.80;;;40.00;;
38994;SDS011;24769;18.712;99.000;2023-01-28T08:38:32;47.80;;;41.20;;
38994;SDS011;24769;18.712;99.000;2023-01-28T08:40:58;49.60;;;42.60;;
38994;SDS011;24769;18.712;99.000;2023-01-28T08:43:25;53.20;;;44.00;;
38994;SDS011;24769;18.712;99.000;2023-01-28T08:45:52;48.40;;;41.40;;
38994;SDS011;24769;18.712;99.000;2023-01-28T08:48:18;45.40;;;38.20;;
38994;SDS011;24769;18.712;99.000;2023-01-28T08:50:46;47.20;;;39.80;;
38994;SDS011;24769;18.712;99.000;2023-01-28T08:53:13;45.80;;;39.80;;
38994;SDS011;24769;18.712;99.000;2023-01-28T08:55:42;47.20;;;40.00;;
38994;SDS011;24769;18.712;99.000;2023-01-28T08:58:11;48.60;;;41.80;;
38994;SDS011;24769;18.712;99.000;2023-01-28T09:00:39;43.00;;;38.00;;
38994;SDS011;24769;18.712;99.000;2023-01-28T09:03:06;45.80;;;39.40;;
38994;SDS011;24769;18.712;99.000;2023-01-28T09:05:34;46.60;;;40.00;;
38994;SDS011;24769;18.712;99.000;2023-01-28T09:08:02;46.20;;;39.60;;
38994;SDS011;24769;18.712;99.000;2023-01-28T09:10:30;50.00;;;42.20;;
38994;SDS011;24769;18.712;99.000;2023-01-28T09:12:57;46.20;;;40.00;;
38994;SDS011;24769;18.712;99.000;2023-01-28T09:15:24;45.20;;;39.00;;
38994;SDS011;24769;18.712;99.000;2023-01-28T09:17:55;47.40;;;40.00;;
38994;SDS011;24769;18.712;99.000;2023-01-28T09:20:23;47.00;;;40.40;;
38994;SDS011;24769;18.712;99.000;2023-01-28T09:22:50;45.60;;;39.60;;
38994;SDS011;24769;18.712;99.000;2023-01-28T09:25:17;45.40;;;39.40;;
38994;SDS011;24769;18.712;99.000;2023-01-28T09:27:44;43.60;;;38.20;;
38994;SDS011;24769;18.712;99.000;2023-01-28T09:30:11;44.00;;;38.20;;
38994;SDS011;24769;18.712;99.000;2023-01-28T09:32:38;47.00;;;40.60;;
38994;SDS011;24769;18.712;99.000;2023-01-28T09:35:04;40.20;;;36.00;;
38994;SDS011;24769;18.712;99.000;2023-01-28T09:37:31;43.00;;;37.80;;
38994;SDS011;24769;18.712;99.000;2023-01-28T09:39:58;47.00;;;40.20;;
38994;SDS011;24769;18.712;99.000;2023-01-28T09:45:14;49.60;;;40.20;;
38994;SDS011;24769;18.712;99.000;2023-01-28T09:47:49;44.20;;;38.60;;
38994;SDS011;24769;18.712;99.000;2023-01-28T09:52:59;45.40;;;39.40;;
38994;SDS011;24769;18.712;99.000;2023-01-28T09:55:35;45.80;;;39.80;;
38994;SDS011;24769;18.712;99.000;2023-01-28T09:58:12;47.20;;;40.80;;
38994;SDS011;24769;18.712;99.000;2023-01-28T10:10:02;44.00;;;38.20;;
38994;SDS011;24769;18.712;99.000;2023-01-28T10:15:23;44.80;;;38.80;;
38994;SDS011;24769;18.712;99.000;2023-01-28T10:18:32;45.80;;;39.80;;
38994;SDS011;24769;18.712;99.000;2023-01-28T10:21:07;45.20;;;39.20;;
38994;SDS011;24769;18.712;99.000;2023-01-28T10:23:59;45.20;;;39.20;;
38994;SDS011;24769;18.712;99.000;2023-01-28T10:26:30;47.80;;;41.20;;
38994;SDS011;24769;18.712;99.000;2023-01-28T10:29:04;45.40;;;39.40;;
38994;SDS011;24769;18.712;99.000;2023-01-28T10:34:38;43.80;;;38.20;;
38994;SDS011;24769;18.712;99.000;2023-01-28T10:37:05;46.00;;;39.20;;
38994;SDS011;24769;18.712;99.000;2023-01-28T10:39:34;46.50;;;39.50;;
38994;SDS011;24769;18.712;99.000;2023-01-28T10:42:00;49.50;;;42.00;;
38994;SDS011;24769;18.712;99.000;2023-01-28T10:44:37;47.80;;;41.20;;
38994;SDS011;24769;18.712;99.000;2023-01-28T10:47:12;41.20;;;36.60;;
38994;SDS011;24769;18.712;99.000;2023-01-28T10:49:43;47.00;;;40.50;;
38994;SDS011;24769;18.712;99.000;2023-01-28T10:52:14;49.00;;;42.50;;
38994;SDS011;24769;18.712;99.000;2023-01-28T10:54:42;45.60;;;38.80;;
38994;SDS011;24769;18.712;99.000;2023-01-28T10:57:12;50.25;;;43.00;;
38994;SDS011;24769;18.712;99.000;2023-01-28T10:59:41;48.00;;;41.50;;
38994;SDS011;24769;18.712;99.000;2023-01-28T11:05:15;53.00;;;43.25;;
38994;SDS011;24769;18.712;99.000;2023-01-28T11:07:50;44.75;;;39.25;;
38994;SDS011;24769;18.712;99.000;2023-01-28T11:13:23;48.50;;;42.00;;
38994;SDS011;24769;18.712;99.000;2023-01-28T11:15:57;42.50;;;37.50;;
38994;SDS011;24769;18.712;99.000;2023-01-28T11:18:46;47.00;;;40.25;;
38994;SDS011;24769;18.712;99.000;2023-01-28T11:21:28;51.50;;;43.75;;
38994;SDS011;24769;18.712;99.000;2023-01-28T11:26:38;50.00;;;42.50;;
38994;SDS011;24769;18.712;99.000;2023-01-28T11:29:23;49.25;;;42.50;;
38994;SDS011;24769;18.712;99.000;2023-01-28T11:31:58;51.67;;;44.67;;
38994;SDS011;24769;18.712;99.000;2023-01-28T11:34:26;53.00;;;44.75;;
38994;SDS011;24769;18.712;99.000;2023-01-28T11:37:00;51.50;;;44.25;;
38994;SDS011;24769;18.712;99.000;2023-01-28T11:39:37;49.00;;;42.25;;
38994;SDS011;24769;18.712;99.000;2023-01-28T11:42:17;50.25;;;43.50;;
38994;SDS011;24769;18.712;99.000;2023-01-28T11:44:46;52.50;;;45.00;;
38994;SDS011;24769;18.712;99.000;2023-01-28T11:47:22;52.00;;;44.50;;
38994;SDS011;24769;18.712;99.000;2023-01-28T11:52:59;54.75;;;45.75;;
38994;SDS011;24769;18.712;99.000;2023-01-28T11:55:39;55.00;;;46.00;;
38994;SDS011;24769;18.712;99.000;2023-01-28T11:58:44;54.25;;;45.50;;
38994;SDS011;24769;18.712;99.000;2023-01-28T12:09:54;57.75;;;47.75;;
38994;SDS011;24769;18.712;99.000;2023-01-28T12:15:32;56.25;;;48.00;;
38994;SDS011;24769;18.712;99.000;2023-01-28T12:21:02;60.00;;;50.00;;
38994;SDS011;24769;18.712;99.000;2023-01-28T12:23:56;58.75;;;49.50;;
38994;SDS011;24769;18.712;99.000;2023-01-28T12:35:25;62.00;;;51.50;;
38994;SDS011;24769;18.712;99.000;2023-01-28T12:38:35;61.00;;;50.00;;
38994;SDS011;24769;18.712;99.000;2023-01-28T12:41:21;58.50;;;49.25;;
38994;SDS011;24769;18.712;99.000;2023-01-28T12:44:11;63.00;;;52.00;;
38994;SDS011;24769;18.712;99.000;2023-01-28T12:54:38;63.75;;;52.75;;
38994;SDS011;24769;18.712;99.000;2023-01-28T12:57:28;60.75;;;50.50;;
38994;SDS011;24769;18.712;99.000;2023-01-28T13:03:10;67.60;;;55.00;;
38994;SDS011;24769;18.712;99.000;2023-01-28T13:05:42;66.25;;;54.25;;
38994;SDS011;24769;18.712;99.000;2023-01-28T13:08:24;65.50;;;53.25;;
38994;SDS011;24769;18.712;99.000;2023-01-28T13:10:52;64.00;;;52.75;;
38994;SDS011;24769;18.712;99.000;2023-01-28T13:15:59;62.25;;;51.75;;
38994;SDS011;24769;18.712;99.000;2023-01-28T13:23:50;62.40;;;51.80;;
38994;SDS011;24769;18.712;99.000;2023-01-28T13:26:35;63.60;;;52.00;;
38994;SDS011;24769;18.712;99.000;2023-01-28T13:31:48;64.40;;;53.00;;
38994;SDS011;24769;18.712;99.000;2023-01-28T13:34:28;70.20;;;56.20;;
38994;SDS011;24769;18.712;99.000;2023-01-28T13:36:57;69.60;;;58.60;;
38994;SDS011;24769;18.712;99.000;2023-01-28T13:39:29;69.60;;;57.60;;
38994;SDS011;24769;18.712;99.000;2023-01-28T13:42:09;64.80;;;53.00;;
38994;SDS011;24769;18.712;99.000;2023-01-28T13:45:11;72.00;;;60.40;;
38994;SDS011;24769;18.712;99.000;2023-01-28T13:47:52;75.80;;;67.20;;
38994;SDS011;24769;18.712;99.000;2023-01-28T13:50:40;71.40;;;58.60;;
38994;SDS011;24769;18.712;99.000;2023-01-28T13:55:59;76.40;;;67.40;;
38994;SDS011;24769;18.712;99.000;2023-01-28T13:58:43;74.60;;;63.80;;
38994;SDS011;24769;18.712;99.000;2023-01-28T14:12:32;80.20;;;74.80;;
38994;SDS011;24769;18.712;99.000;2023-01-28T14:15:13;79.20;;;73.60;;
38994;SDS011;24769;18.712;99.000;2023-01-28T14:18:09;84.40;;;78.80;;
38994;SDS011;24769;18.712;99.000;2023-01-28T14:20:52;81.80;;;76.40;;
38994;SDS011;24769;18.712;99.000;2023-01-28T14:23:21;84.40;;;81.80;;
38994;SDS011;24769;18.712;99.000;2023-01-28T14:28:41;86.60;;;85.80;;
38994;SDS011;24769;18.712;99.000;2023-01-28T14:31:38;83.00;;;75.40;;
38994;SDS011;24769;18.712;99.000;2023-01-28T14:36:42;88.20;;;84.60;;
38994;SDS011;24769;18.712;99.000;2023-01-28T14:39:14;85.00;;;80.40;;
38994;SDS011;24769;18.712;99.000;2023-01-28T14:41:42;83.40;;;76.60;;
38994;SDS011;24769;18.712;99.000;2023-01-28T14:44:44;86.80;;;82.60;;
38994;SDS011;24769;18.712;99.000;2023-01-28T14:47:18;81.00;;;71.60;;
38994;SDS011;24769;18.712;99.000;2023-01-28T14:58:37;85.00;;;80.40;;
38994;SDS011;24769;18.712;99.000;2023-01-28T15:01:20;85.80;;;80.80;;
38994;SDS011;24769;18.712;99.000;2023-01-28T15:03:49;84.00;;;76.40;;
38994;SDS011;24769;18.712;99.000;2023-01-28T15:06:17;92.20;;;91.20;;
38994;SDS011;24769;18.712;99.000;2023-01-28T15:08:51;92.60;;;87.80;;
38994;SDS011;24769;18.712;99.000;2023-01-28T15:11:22;90.00;;;87.20;;
38994;SDS011;24769;18.712;99.000;2023-01-28T15:13:52;96.00;;;95.40;;
38994;SDS011;24769;18.712;99.000;2023-01-28T15:16:22;92.20;;;90.60;;
38994;SDS011;24769;18.712;99.000;2023-01-28T15:18:59;97.40;;;95.20;;
38994;SDS011;24769;18.712;99.000;2023-01-28T15:21:27;102.00;;;99.20;;
38994;SDS011;24769;18.712;99.000;2023-01-28T15:23:58;98.60;;;97.20;;
38994;SDS011;24769;18.712;99.000;2023-01-28T15:26:30;94.60;;;94.60;;
38994;SDS011;24769;18.712;99.000;2023-01-28T15:28:59;103.80;;;103.80;;
38994;SDS011;24769;18.712;99.000;2023-01-28T15:31:30;104.40;;;103.60;;
38994;SDS011;24769;18.712;99.000;2023-01-28T15:34:00;106.60;;;104.40;;
38994;SDS011;24769;18.712;99.000;2023-01-28T15:36:29;107.80;;;105.00;;
38994;SDS011;24769;18.712;99.000;2023-01-28T15:38:56;110.40;;;109.40;;
38994;SDS011;24769;18.712;99.000;2023-01-28T15:41:26;110.20;;;107.60;;
38994;SDS011;24769;18.712;99.000;2023-01-28T15:43:58;99.80;;;98.20;;
38994;SDS011;24769;18.712;99.000;2023-01-28T15:46:25;112.80;;;106.80;;
38994;SDS011;24769;18.712;99.000;2023-01-28T15:48:57;104.20;;;102.40;;
38994;SDS011;24769;18.712;99.000;2023-01-28T15:51:27;115.80;;;113.60;;
38994;SDS011;24769;18.712;99.000;2023-01-28T15:53:57;102.80;;;102.80;;
38994;SDS011;24769;18.712;99.000;2023-01-28T15:56:29;113.20;;;111.40;;
38994;SDS011;24769;18.712;99.000;2023-01-28T15:59:06;113.60;;;110.40;;
38994;SDS011;24769;18.712;99.000;2023-01-28T16:01:45;104.00;;;102.40;;
38994;SDS011;24769;18.712;99.000;2023-01-28T16:04:21;112.20;;;112.00;;
38994;SDS011;24769;18.712;99.000;2023-01-28T16:06:53;104.00;;;103.80;;
38994;SDS011;24769;18.712;99.000;2023-01-28T16:09:23;115.80;;;110.80;;
38994;SDS011;24769;18.712;99.000;2023-01-28T16:12:05;115.40;;;109.80;;
38994;SDS011;24769;18.712;99.000;2023-01-28T16:14:38;115.80;;;113.20;;
38994;SDS011;24769;18.712;99.000;2023-01-28T16:17:24;108.40;;;108.20;;
38994;SDS011;24769;18.712;99.000;2023-01-28T16:19:57;109.40;;;105.80;;
38994;SDS011;24769;18.712;99.000;2023-01-28T16:22:38;117.60;;;112.40;;
38994;SDS011;24769;18.712;99.000;2023-01-28T16:25:24;107.40;;;106.00;;
38994;SDS011;24769;18.712;99.000;2023-01-28T16:27:53;113.80;;;111.80;;
38994;SDS011;24769;18.712;99.000;2023-01-28T16:30:21;120.20;;;116.80;;
38994;SDS011;24769;18.712;99.000;2023-01-28T16:32:48;126.00;;;123.40;;
38994;SDS011;24769;18.712;99.000;2023-01-28T16:35:21;110.80;;;107.60;;
38994;SDS011;24769;18.712;99.000;2023-01-28T16:37:54;125.40;;;122.20;;
38994;SDS011;24769;18.712;99.000;2023-01-28T16:40:22;119.40;;;119.40;;
38994;SDS011;24769;18.712;99.000;2023-01-28T16:42:52;123.60;;;123.20;;